Time;durP1;ratioP1;P1;durP2;ratioP2;P2;SDS_P1;SDS_P2;PMS_P1;PMS_P2;Temp;Humidity;BMP_temperature;BMP_pressure;BME280_temperature;BME280_humidity;BME280_pressure;Samples;Min_cycle;Max_cycle;Signal;HPM_P1;HPM_P2
2024/01/07 00:00:01;;;;;;;17.80;8.87;;;-0.30;99.90;;;;;;5096880;27;20043;-88
2024/01/07 00:02:27;;;;;;;17.73;8.97;;;1.00;99.90;;;;;;5132065;27;20037;-88
2024/01/07 00:04:52;;;;;;;17.80;10.43;;;-0.30;99.90;;;;;;5113494;28;20039;-89
2024/01/07 00:07:20;;;;;;;15.83;9.30;;;-0.30;99.90;;;;;;5113512;28;20114;-89
2024/01/07 00:09:46;;;;;;;16.27;9.57;;;-0.30;99.90;;;;;;5113694;27;20172;-89
2024/01/07 00:12:11;;;;;;;16.13;9.17;;;-0.30;99.90;;;;;;5096860;27;20129;-89
2024/01/07 00:14:37;;;;;;;14.60;9.13;;;-0.30;99.90;;;;;;5096415;28;20031;-89
2024/01/07 00:17:03;;;;;;;15.37;8.70;;;-0.30;99.90;;;;;;5113793;28;20136;-89
2024/01/07 00:19:31;;;;;;;16.27;9.53;;;-0.30;99.90;;;;;;5095138;28;20069;-88
2024/01/07 00:21:56;;;;;;;16.90;8.87;;;-0.30;99.90;;;;;;5113655;28;20118;-88
2024/01/07 00:24:25;;;;;;;17.00;9.27;;;-0.30;99.90;;;;;;5096530;28;20067;-88
2024/01/07 00:26:51;;;;;;;15.30;9.10;;;-0.30;99.90;;;;;;5098724;28;20134;-88
2024/01/07 00:29:16;;;;;;;13.87;8.57;;;-0.30;99.90;;;;;;5113062;28;20035;-88
2024/01/07 00:31:42;;;;;;;12.90;8.13;;;-0.30;99.90;;;;;;5096526;28;20076;-89
2024/01/07 00:34:07;;;;;;;12.60;8.07;;;-0.30;99.90;;;;;;5096091;28;20043;-88
2024/01/07 00:36:33;;;;;;;12.63;8.00;;;-0.30;99.90;;;;;;5113336;28;20494;-88
2024/01/07 00:38:58;;;;;;;12.30;7.70;;;-0.30;99.90;;;;;;5096789;28;20486;-87
2024/01/07 00:41:24;;;;;;;14.83;7.90;;;-0.30;99.90;;;;;;5113186;28;20036;-87
2024/01/07 00:43:50;;;;;;;13.83;8.00;;;-0.40;99.90;;;;;;5113086;28;20406;-88
2024/01/07 00:46:15;;;;;;;12.07;7.47;;;-0.40;99.90;;;;;;5087819;28;20040;-88
2024/01/07 00:48:41;;;;;;;12.13;7.60;;;-0.40;99.90;;;;;;5096164;28;20035;-88
2024/01/07 00:51:07;;;;;;;12.50;6.97;;;-0.40;99.90;;;;;;5113313;28;20031;-87
2024/01/07 00:53:32;;;;;;;11.73;6.97;;;-0.40;99.90;;;;;;5113194;27;20035;-87
2024/01/07 00:55:58;;;;;;;12.20;7.13;;;-0.40;99.90;;;;;;5113430;28;20422;-88
2024/01/07 00:58:23;;;;;;;10.63;7.10;;;-0.40;99.90;;;;;;5112982;28;20035;-88
2024/01/07 01:00:49;;;;;;;11.63;7.17;;;-0.40;99.90;;;;;;5112396;28;20046;-88
2024/01/07 01:03:15;;;;;;;11.83;7.27;;;0.30;99.90;;;;;;5114038;27;20111;-88
2024/01/07 01:05:40;;;;;;;12.20;6.93;;;-0.40;99.90;;;;;;5100318;27;20047;-87
2024/01/07 01:08:06;;;;;;;13.70;6.90;;;-0.40;99.90;;;;;;5135852;27;20027;-89
2024/01/07 01:10:31;;;;;;;12.60;7.73;;;-0.40;99.90;;;;;;5135476;27;20601;-88
2024/01/07 01:12:57;;;;;;;10.50;6.60;;;-0.40;99.90;;;;;;5117360;27;20039;-88
2024/01/07 01:15:23;;;;;;;12.10;7.63;;;-0.50;99.90;;;;;;5116820;27;20035;-87
2024/01/07 01:17:48;;;;;;;12.13;6.37;;;-0.40;99.90;;;;;;5116949;27;20081;-87
2024/01/07 01:20:14;;;;;;;11.37;6.67;;;-0.40;99.90;;;;;;5100050;27;20036;-88
2024/01/07 01:22:40;;;;;;;10.73;6.80;;;-0.20;99.90;;;;;;5116984;27;20041;-88
2024/01/07 01:25:06;;;;;;;11.60;7.07;;;-0.40;99.90;;;;;;5099556;27;20118;-87
2024/01/07 01:27:31;;;;;;;9.87;6.30;;;-0.40;99.90;;;;;;5116526;27;20039;-87
2024/01/07 01:29:57;;;;;;;12.80;7.33;;;-0.40;99.90;;;;;;5116680;27;20031;-88
2024/01/07 01:32:22;;;;;;;10.83;7.27;;;-0.40;99.90;;;;;;5099425;27;20039;-88
2024/01/07 01:34:48;;;;;;;10.53;6.90;;;-0.40;99.90;;;;;;5116356;27;20132;-88
2024/01/07 01:37:13;;;;;;;9.57;5.93;;;-0.40;99.90;;;;;;5100004;27;20118;-87
2024/01/07 01:39:40;;;;;;;13.10;7.10;;;-0.40;99.90;;;;;;5099802;27;20037;-87
2024/01/07 01:42:07;;;;;;;13.40;7.23;;;-0.40;99.90;;;;;;5116426;27;20031;-87
2024/01/07 01:44:33;;;;;;;10.07;6.83;;;-0.40;99.90;;;;;;5116290;27;20106;-88
2024/01/07 01:47:00;;;;;;;12.53;7.43;;;-0.40;99.90;;;;;;5116455;27;20489;-87
2024/01/07 01:49:26;;;;;;;11.23;6.77;;;-0.40;99.90;;;;;;5116518;27;20085;-88
2024/01/07 01:51:55;;;;;;;12.00;6.83;;;-0.40;99.90;;;;;;5116537;27;20168;-87
2024/01/07 01:54:21;;;;;;;11.77;6.83;;;-0.40;99.90;;;;;;5116244;27;20067;-88
2024/01/07 01:56:48;;;;;;;11.30;6.53;;;-0.50;99.90;;;;;;5116255;27;20266;-87
2024/01/07 01:59:16;;;;;;;10.33;6.30;;;-0.60;99.90;;;;;;5099351;27;20104;-88
2024/01/07 02:01:42;;;;;;;10.33;6.30;;;-0.50;99.90;;;;;;5099390;27;20045;-87
2024/01/07 02:04:09;;;;;;;11.83;6.53;;;-0.50;99.90;;;;;;5116033;27;20031;-88
2024/01/07 02:06:35;;;;;;;10.70;6.30;;;-0.50;99.90;;;;;;5099382;27;20122;-87
2024/01/07 02:09:02;;;;;;;10.27;6.40;;;-0.50;99.90;;;;;;5116229;27;20046;-88
2024/01/07 02:11:27;;;;;;;11.47;6.60;;;-0.50;99.90;;;;;;5101617;27;20035;-88
2024/01/07 02:13:53;;;;;;;11.43;6.70;;;-0.50;99.90;;;;;;5115553;27;20068;-88
2024/01/07 02:16:19;;;;;;;10.10;5.70;;;0.50;99.90;;;;;;5099210;27;20034;-88
2024/01/07 02:18:45;;;;;;;8.17;5.50;;;-0.50;99.90;;;;;;5098922;27;20039;-89
2024/01/07 02:21:13;;;;;;;9.97;6.17;;;-0.50;99.90;;;;;;5116165;27;20031;-87
2024/01/07 02:23:39;;;;;;;11.20;6.37;;;-0.60;99.90;;;;;;5115550;27;20031;-87
2024/01/07 02:26:05;;;;;;;10.30;6.30;;;-0.60;99.90;;;;;;5115683;27;20395;-87
2024/01/07 02:28:32;;;;;;;10.20;6.10;;;-0.50;99.90;;;;;;5098984;27;20039;-87
2024/01/07 02:30:58;;;;;;;10.30;6.10;;;-0.60;99.90;;;;;;5115483;27;20035;-88
2024/01/07 02:33:24;;;;;;;12.27;6.00;;;-0.60;99.90;;;;;;5115544;27;20106;-87
2024/01/07 02:35:50;;;;;;;10.53;6.10;;;-0.60;99.90;;;;;;5098517;27;20358;-87
2024/01/07 02:38:15;;;;;;;10.90;5.93;;;-0.60;99.90;;;;;;5115472;27;20027;-88
2024/01/07 02:40:41;;;;;;;9.83;5.43;;;-0.60;99.90;;;;;;5115422;27;20070;-87
2024/01/07 02:43:07;;;;;;;11.40;6.10;;;-0.60;99.90;;;;;;5115279;27;20023;-88
2024/01/07 02:45:33;;;;;;;9.90;5.77;;;-0.60;99.90;;;;;;5098434;27;20162;-88
2024/01/07 02:47:59;;;;;;;10.80;5.73;;;-0.60;99.90;;;;;;5115340;27;20092;-88
2024/01/07 02:50:24;;;;;;;9.30;5.67;;;-0.60;99.90;;;;;;5115671;27;20483;-89
2024/01/07 02:52:50;;;;;;;10.20;5.50;;;-0.60;99.90;;;;;;5115084;27;20192;-88
2024/01/07 02:55:16;;;;;;;9.97;5.70;;;-0.60;99.90;;;;;;5115092;27;20517;-88
2024/01/07 02:57:41;;;;;;;8.60;5.07;;;-0.60;99.90;;;;;;5114742;27;20043;-88
2024/01/07 03:00:07;;;;;;;8.17;4.97;;;-0.60;99.90;;;;;;5113773;27;20469;-87
2024/01/07 03:02:33;;;;;;;8.60;4.87;;;-0.60;99.90;;;;;;5096977;27;20428;-88
2024/01/07 03:04:59;;;;;;;11.33;4.83;;;-0.50;99.90;;;;;;5115038;27;20096;-88
2024/01/07 03:07:25;;;;;;;7.73;5.00;;;-0.50;99.90;;;;;;5098240;27;20074;-87
2024/01/07 03:09:51;;;;;;;7.90;4.70;;;-0.60;99.90;;;;;;5114793;27;20120;-88
2024/01/07 03:12:16;;;;;;;8.10;4.20;;;-0.60;99.90;;;;;;5114900;27;20107;-88
2024/01/07 03:14:42;;;;;;;7.57;4.17;;;-0.60;99.90;;;;;;5114517;27;20131;-88
2024/01/07 03:17:09;;;;;;;7.60;4.33;;;-0.50;99.90;;;;;;5097664;27;20466;-88
2024/01/07 03:19:34;;;;;;;8.73;4.23;;;-0.60;99.90;;;;;;5114870;27;20042;-88
2024/01/07 03:22:00;;;;;;;7.60;4.30;;;-0.60;99.90;;;;;;5114631;27;20039;-88
2024/01/07 03:24:25;;;;;;;8.10;4.77;;;-0.10;99.90;;;;;;5114428;27;20089;-89
2024/01/07 03:26:51;;;;;;;6.33;4.43;;;-0.50;99.90;;;;;;5113705;27;20085;-88
2024/01/07 03:29:16;;;;;;;7.47;4.20;;;-0.50;99.90;;;;;;5097455;27;20119;-88
2024/01/07 03:31:42;;;;;;;6.73;4.13;;;-0.50;99.90;;;;;;5114580;27;20478;-88
2024/01/07 03:34:08;;;;;;;7.03;4.13;;;-0.60;99.90;;;;;;5114344;27;20035;-88
2024/01/07 03:36:33;;;;;;;5.20;3.73;;;-0.50;99.90;;;;;;5114314;27;20034;-88
2024/01/07 03:39:00;;;;;;;8.77;4.80;;;-0.50;99.90;;;;;;5114699;27;20042;-87
2024/01/07 03:41:25;;;;;;;9.93;3.93;;;-0.50;99.90;;;;;;5098618;27;20156;-88
2024/01/07 03:43:52;;;;;;;9.10;4.13;;;-0.60;99.90;;;;;;5117330;27;20407;-88
2024/01/07 03:46:18;;;;;;;7.73;4.10;;;-0.60;99.90;;;;;;5116075;27;20039;-87
2024/01/07 03:48:44;;;;;;;7.67;4.00;;;-0.80;99.90;;;;;;5115155;27;20054;-87
2024/01/07 03:51:10;;;;;;;6.43;4.17;;;-0.60;99.90;;;;;;5094827;28;20027;-88
2024/01/07 03:53:36;;;;;;;9.90;3.67;;;-0.60;99.90;;;;;;5094489;28;20077;-88
2024/01/07 03:56:01;;;;;;;5.70;3.80;;;-0.60;99.90;;;;;;5097347;27;20039;-88
2024/01/07 03:58:27;;;;;;;5.53;3.70;;;1.00;99.90;;;;;;5114614;27;20293;-88
2024/01/07 04:00:52;;;;;;;7.00;3.93;;;-0.60;99.90;;;;;;5114940;27;20081;-88
2024/01/07 04:03:19;;;;;;;6.17;3.60;;;-0.60;99.90;;;;;;5114427;28;20046;-88
2024/01/07 04:05:45;;;;;;;6.03;3.63;;;-0.60;99.90;;;;;;5114371;27;20043;-87
2024/01/07 04:08:11;;;;;;;6.80;3.60;;;-0.60;99.90;;;;;;5114001;27;20126;-87
2024/01/07 04:10:37;;;;;;;5.80;3.43;;;-0.60;99.90;;;;;;5114328;28;20112;-88
2024/01/07 04:13:04;;;;;;;6.00;4.00;;;-0.60;99.90;;;;;;5114297;27;20043;-88
2024/01/07 04:15:30;;;;;;;6.63;3.47;;;-0.60;99.90;;;;;;5114196;28;20107;-89
2024/01/07 04:17:56;;;;;;;5.80;3.40;;;-0.70;99.90;;;;;;5114166;28;20035;-87
2024/01/07 04:20:22;;;;;;;7.83;3.87;;;-0.70;99.90;;;;;;5114509;28;20110;-88
2024/01/07 04:22:47;;;;;;;6.70;3.37;;;-0.60;99.90;;;;;;5114388;28;20039;-88
2024/01/07 04:25:13;;;;;;;5.17;3.23;;;-0.70;99.90;;;;;;5096992;28;20050;-89
2024/01/07 04:27:39;;;;;;;8.10;3.60;;;-0.60;99.90;;;;;;5097162;28;20130;-89
2024/01/07 04:30:06;;;;;;;6.57;3.20;;;-0.60;99.90;;;;;;5113989;28;20506;-88
2024/01/07 04:32:32;;;;;;;4.40;3.20;;;-0.60;99.90;;;;;;5113655;28;20084;-87
2024/01/07 04:34:57;;;;;;;5.07;3.20;;;-0.60;99.90;;;;;;5096783;28;20562;-88
2024/01/07 04:37:24;;;;;;;5.20;2.60;;;-0.60;99.90;;;;;;5115391;27;20035;-88
2024/01/07 04:39:50;;;;;;;5.53;3.83;;;-0.60;99.90;;;;;;5118048;27;20482;-88
2024/01/07 04:42:17;;;;;;;4.83;3.03;;;-0.60;99.90;;;;;;5118031;27;20077;-88
2024/01/07 04:44:42;;;;;;;5.23;3.20;;;-0.60;99.90;;;;;;5117484;27;20398;-89
2024/01/07 04:47:44;;;;;;;5.53;3.13;;;-0.60;99.90;;;;;;5118004;27;20150;-88
2024/01/07 04:50:09;;;;;;;6.63;3.00;;;0.50;99.90;;;;;;5035981;28;20195;-88
2024/01/07 04:52:35;;;;;;;5.60;2.90;;;-0.60;99.90;;;;;;5100690;27;20087;-88
2024/01/07 04:55:00;;;;;;;4.57;2.80;;;-0.60;99.90;;;;;;5135649;27;20107;-88
2024/01/07 04:57:26;;;;;;;3.53;2.50;;;-0.60;99.90;;;;;;5117577;27;20039;-87
2024/01/07 04:59:52;;;;;;;4.47;2.50;;;-0.60;99.90;;;;;;5135821;27;20035;-88
2024/01/07 05:02:18;;;;;;;4.67;2.67;;;-0.70;99.90;;;;;;5117449;27;20035;-88
2024/01/07 05:04:43;;;;;;;3.57;2.30;;;-0.60;99.90;;;;;;5099919;27;20043;-86
2024/01/07 05:07:09;;;;;;;4.57;2.50;;;0.30;99.90;;;;;;5116845;27;20406;-85
2024/01/07 05:09:35;;;;;;;4.07;2.60;;;-0.60;99.90;;;;;;5115979;27;20077;-85
2024/01/07 05:12:00;;;;;;;3.53;2.20;;;-0.60;99.90;;;;;;5100668;27;20158;-86
2024/01/07 05:14:27;;;;;;;3.80;2.67;;;-0.60;99.90;;;;;;5099746;27;20043;-86
2024/01/07 05:16:54;;;;;;;4.70;2.20;;;-0.60;99.90;;;;;;5100087;27;20083;-86
2024/01/07 05:19:20;;;;;;;3.97;2.30;;;0.90;99.90;;;;;;5117057;27;20113;-87
2024/01/07 05:21:45;;;;;;;4.10;2.07;;;-0.60;99.90;;;;;;5116890;27;20074;-85
2024/01/07 05:24:11;;;;;;;4.53;2.17;;;-0.60;99.90;;;;;;5116719;27;20035;-86
2024/01/07 05:26:42;;;;;;;3.50;2.10;;;-0.50;99.90;;;;;;5117083;27;20103;-85
2024/01/07 05:29:08;;;;;;;4.67;2.20;;;-0.60;99.90;;;;;;5099944;27;20043;-86
2024/01/07 05:31:33;;;;;;;3.27;2.03;;;0.90;99.90;;;;;;5116722;27;20057;-86
2024/01/07 05:33:59;;;;;;;3.90;2.00;;;0.90;99.90;;;;;;5116724;27;20111;-87
2024/01/07 05:36:24;;;;;;;4.80;1.93;;;-0.50;99.90;;;;;;5116842;27;20033;-85
2024/01/07 05:38:50;;;;;;;2.67;1.80;;;-0.60;99.90;;;;;;5117028;27;20092;-86
2024/01/07 05:41:16;;;;;;;4.37;2.30;;;-0.50;99.90;;;;;;5117795;27;20080;-86
2024/01/07 05:43:41;;;;;;;3.93;2.10;;;-0.50;99.90;;;;;;5117379;27;20031;-86
2024/01/07 05:46:07;;;;;;;6.10;2.20;;;-0.60;99.90;;;;;;5116812;27;20056;-86
2024/01/07 05:48:46;;;;;;;3.90;1.93;;;-0.50;99.90;;;;;;5115868;27;20122;-87
2024/01/07 05:51:12;;;;;;;2.83;1.70;;;-0.50;99.90;;;;;;5116079;27;20039;-85
2024/01/07 05:53:38;;;;;;;4.07;2.00;;;-0.50;99.90;;;;;;5099379;27;20083;-86
2024/01/07 05:56:04;;;;;;;4.20;1.87;;;-0.50;99.90;;;;;;5099326;27;20074;-86
2024/01/07 05:58:30;;;;;;;3.43;1.90;;;-0.50;99.90;;;;;;5116424;27;20451;-86
2024/01/07 06:00:56;;;;;;;4.43;2.20;;;-0.50;99.90;;;;;;5116767;27;20517;-85
2024/01/07 06:03:21;;;;;;;2.73;2.00;;;-0.50;99.90;;;;;;5099471;27;20364;-85
2024/01/07 06:05:47;;;;;;;3.30;1.70;;;-0.50;99.90;;;;;;5099536;27;20355;-85
2024/01/07 06:08:13;;;;;;;4.97;2.00;;;-0.50;99.90;;;;;;5116170;27;20053;-86
2024/01/07 06:10:40;;;;;;;4.03;1.90;;;-0.50;99.90;;;;;;5116012;27;20031;-85
2024/01/07 06:13:05;;;;;;;2.50;1.70;;;-0.50;99.90;;;;;;5115924;27;20043;-86
2024/01/07 06:15:31;;;;;;;3.93;2.13;;;-0.50;99.90;;;;;;5116046;27;20508;-85
2024/01/07 06:17:57;;;;;;;2.90;1.80;;;-0.50;99.90;;;;;;5099225;27;20034;-85
2024/01/07 06:20:23;;;;;;;3.13;1.53;;;-0.50;99.90;;;;;;5134372;27;20039;-85
2024/01/07 06:22:49;;;;;;;5.50;2.07;;;-0.50;99.90;;;;;;5134197;27;20027;-85
2024/01/07 06:25:14;;;;;;;4.27;2.13;;;-0.50;99.90;;;;;;5114378;27;20135;-85
2024/01/07 06:27:41;;;;;;;4.63;1.47;;;-0.50;99.90;;;;;;5115664;27;20043;-85
2024/01/07 06:30:07;;;;;;;2.87;1.80;;;-0.50;99.90;;;;;;5116306;27;20115;-85
2024/01/07 06:32:33;;;;;;;4.33;1.80;;;-0.50;99.90;;;;;;5115278;27;20477;-87
2024/01/07 06:34:59;;;;;;;2.60;1.70;;;-0.50;99.90;;;;;;5133863;27;20043;-87
2024/01/07 06:37:25;;;;;;;4.53;2.00;;;-0.50;99.90;;;;;;5115905;27;20509;-87
2024/01/07 06:39:51;;;;;;;3.40;1.97;;;-0.50;99.90;;;;;;5115670;27;20043;-88
2024/01/07 06:42:17;;;;;;;3.23;1.80;;;-0.50;99.90;;;;;;5114225;27;20042;-87
2024/01/07 06:44:42;;;;;;;5.03;1.90;;;-0.50;99.90;;;;;;5115637;27;20039;-87
2024/01/07 06:47:08;;;;;;;4.17;1.70;;;-0.50;99.90;;;;;;5115533;27;20046;-86
2024/01/07 06:49:34;;;;;;;3.97;1.77;;;-0.50;99.90;;;;;;5097649;27;20038;-86
2024/01/07 06:51:59;;;;;;;3.60;1.60;;;-0.50;99.90;;;;;;5114930;27;20035;-87
2024/01/07 06:54:25;;;;;;;3.83;1.80;;;-0.50;99.90;;;;;;5098144;27;20074;-86
2024/01/07 06:56:51;;;;;;;3.20;1.93;;;-0.50;99.90;;;;;;5115696;27;20035;-86
2024/01/07 06:59:16;;;;;;;3.77;1.70;;;-0.50;99.90;;;;;;5115366;27;20064;-86
2024/01/07 07:01:42;;;;;;;3.37;1.80;;;-0.50;99.90;;;;;;5112715;27;20122;-87
2024/01/07 07:04:08;;;;;;;3.10;1.90;;;-0.50;99.90;;;;;;5097948;27;20039;-86
2024/01/07 07:06:34;;;;;;;2.97;1.73;;;-0.50;99.90;;;;;;5115013;27;20073;-86
2024/01/07 07:09:00;;;;;;;2.87;1.43;;;-0.60;99.90;;;;;;5115032;27;20035;-86
2024/01/07 07:11:26;;;;;;;3.93;1.60;;;-0.60;99.90;;;;;;5097759;27;20119;-87
2024/01/07 07:13:51;;;;;;;3.77;1.53;;;-0.60;99.90;;;;;;5114496;27;20039;-86
2024/01/07 07:16:17;;;;;;;2.30;1.40;;;-0.60;99.90;;;;;;5097871;27;20035;-86
2024/01/07 07:18:42;;;;;;;2.27;1.50;;;-0.60;99.90;;;;;;5097182;27;20032;-87
2024/01/07 07:21:08;;;;;;;3.67;2.20;;;-0.60;99.90;;;;;;5133119;27;20083;-86
2024/01/07 07:23:34;;;;;;;3.40;1.60;;;-0.60;99.90;;;;;;5114655;27;20074;-86
2024/01/07 07:25:59;;;;;;;2.97;1.50;;;-0.60;99.90;;;;;;5114666;27;20039;-86
2024/01/07 07:28:25;;;;;;;3.40;1.50;;;-0.60;99.90;;;;;;5114760;27;20049;-86
2024/01/07 07:30:52;;;;;;;2.17;1.30;;;-0.70;99.90;;;;;;5114340;27;20046;-86
2024/01/07 07:33:18;;;;;;;2.20;1.70;;;-0.70;99.90;;;;;;5114550;27;20047;-86
2024/01/07 07:35:44;;;;;;;2.60;1.47;;;-0.80;99.90;;;;;;5114291;27;20122;-86
2024/01/07 07:38:09;;;;;;;3.47;1.53;;;-0.80;99.90;;;;;;5097976;27;20031;-86
2024/01/07 07:40:35;;;;;;;2.87;1.60;;;-0.80;99.90;;;;;;5115539;27;20038;-86
2024/01/07 07:43:00;;;;;;;3.37;1.70;;;-0.90;99.90;;;;;;5114678;27;20035;-86
2024/01/07 07:45:26;;;;;;;2.40;1.40;;;-1.00;99.90;;;;;;5097149;27;20081;-86
2024/01/07 07:47:51;;;;;;;2.47;1.57;;;-1.00;99.90;;;;;;5097354;27;20039;-86
2024/01/07 07:50:17;;;;;;;3.73;1.90;;;-1.10;99.90;;;;;;5114806;27;20574;-86
2024/01/07 07:52:45;;;;;;;3.00;1.53;;;-1.10;99.90;;;;;;5113914;27;20091;-85
2024/01/07 07:55:11;;;;;;;5.83;2.00;;;-1.10;99.90;;;;;;5112748;27;20047;-85
2024/01/07 07:57:39;;;;;;;5.13;1.73;;;-1.10;99.90;;;;;;5098961;27;20114;-85
2024/01/07 08:00:07;;;;;;;3.60;1.73;;;-1.10;99.90;;;;;;5113865;27;20035;-86
2024/01/07 08:02:32;;;;;;;3.30;1.80;;;-1.10;99.90;;;;;;5096779;27;20490;-86
2024/01/07 08:04:58;;;;;;;3.20;1.93;;;-1.20;99.90;;;;;;5113867;27;20053;-86
2024/01/07 08:07:23;;;;;;;3.90;1.70;;;-1.20;99.90;;;;;;5114416;27;20045;-85
2024/01/07 08:09:49;;;;;;;4.50;1.97;;;-1.20;99.90;;;;;;5132473;27;20498;-86
2024/01/07 08:12:15;;;;;;;3.47;1.90;;;-1.20;99.90;;;;;;5113816;28;20051;-86
2024/01/07 08:14:43;;;;;;;3.93;1.90;;;-1.10;99.90;;;;;;5096522;28;20039;-86
2024/01/07 08:17:09;;;;;;;3.47;2.47;;;-1.10;99.90;;;;;;5096952;28;20095;-86
2024/01/07 08:19:35;;;;;;;3.90;2.40;;;-1.10;99.90;;;;;;5114048;28;20453;-85
2024/01/07 08:22:01;;;;;;;3.53;1.90;;;-1.00;99.90;;;;;;5113902;28;20039;-85
2024/01/07 08:24:27;;;;;;;4.53;2.00;;;-1.10;99.90;;;;;;5113473;28;20031;-84
2024/01/07 08:26:53;;;;;;;4.00;1.93;;;-1.00;99.90;;;;;;5113775;28;20070;-86
2024/01/07 08:29:19;;;;;;;2.90;1.90;;;-1.00;99.90;;;;;;5096701;28;20043;-85
2024/01/07 08:31:44;;;;;;;4.87;2.20;;;-1.00;99.90;;;;;;5112721;28;20054;-85
2024/01/07 08:34:10;;;;;;;5.60;2.00;;;-0.90;99.90;;;;;;5112373;28;20047;-86
2024/01/07 08:36:35;;;;;;;5.33;2.27;;;-0.90;99.90;;;;;;5098907;28;20067;-85
2024/01/07 08:39:01;;;;;;;2.97;1.87;;;-0.80;99.90;;;;;;5114409;28;20511;-85
2024/01/07 08:41:27;;;;;;;4.37;1.90;;;-0.80;99.90;;;;;;5097065;28;20503;-85
2024/01/07 08:43:52;;;;;;;3.40;1.90;;;-0.80;99.90;;;;;;5096736;28;20031;-85
2024/01/07 08:46:21;;;;;;;3.43;2.17;;;-0.70;99.90;;;;;;5114169;28;20072;-86
2024/01/07 08:48:47;;;;;;;3.17;2.40;;;-0.70;99.90;;;;;;5113813;28;20482;-86
2024/01/07 08:51:13;;;;;;;3.10;1.90;;;-0.70;99.90;;;;;;5114257;28;20043;-85
2024/01/07 08:53:39;;;;;;;3.60;2.00;;;-0.70;99.90;;;;;;5113534;27;20050;-85
2024/01/07 08:56:06;;;;;;;2.90;1.70;;;-0.70;99.90;;;;;;5113377;28;20100;-85
2024/01/07 08:58:32;;;;;;;3.03;1.70;;;-0.60;99.90;;;;;;5096866;28;20050;-85
2024/01/07 09:00:58;;;;;;;2.70;1.60;;;-0.60;99.90;;;;;;5114215;28;20410;-85
2024/01/07 09:03:42;;;;;;;4.10;1.70;;;-0.60;99.90;;;;;;5114592;27;20462;-85
2024/01/07 09:06:08;;;;;;;2.47;1.53;;;-0.70;99.90;;;;;;5108873;28;20071;-85
2024/01/07 09:08:35;;;;;;;4.03;1.73;;;-0.60;99.90;;;;;;5110733;28;20088;-85
2024/01/07 09:11:03;;;;;;;3.53;1.60;;;-0.60;99.90;;;;;;5109329;28;20032;-85
2024/01/07 09:13:29;;;;;;;3.03;1.87;;;-0.50;99.90;;;;;;5092530;28;20035;-85
2024/01/07 09:15:55;;;;;;;5.30;1.87;;;-0.50;99.90;;;;;;5095628;28;20038;-85
2024/01/07 09:18:21;;;;;;;4.30;1.70;;;-0.50;99.90;;;;;;5106823;28;20032;-85
2024/01/07 09:20:46;;;;;;;2.63;1.30;;;-0.50;99.90;;;;;;5092500;28;20051;-85
2024/01/07 09:23:12;;;;;;;3.40;1.40;;;-0.40;99.90;;;;;;5094779;28;20100;-85
2024/01/07 09:25:38;;;;;;;2.70;1.50;;;-0.40;99.90;;;;;;5086706;28;20501;-85
2024/01/07 09:28:05;;;;;;;2.97;1.60;;;-0.40;99.90;;;;;;5096062;28;20462;-84
2024/01/07 09:30:30;;;;;;;2.30;1.50;;;-0.40;99.90;;;;;;5102139;27;20457;-86
2024/01/07 09:32:56;;;;;;;4.80;1.50;;;-0.30;99.90;;;;;;5099659;28;20046;-84
2024/01/07 09:35:21;;;;;;;2.53;1.63;;;-0.30;99.90;;;;;;5103782;27;20046;-85
2024/01/07 09:37:47;;;;;;;3.07;1.60;;;-0.30;99.90;;;;;;5091371;28;20568;-85
2024/01/07 09:40:19;;;;;;;4.87;1.80;;;-0.30;99.90;;;;;;5112686;27;20039;-85
2024/01/07 09:42:45;;;;;;;2.87;1.77;;;1.00;99.90;;;;;;5116315;27;20031;-85
2024/01/07 09:45:12;;;;;;;4.80;2.00;;;-0.20;99.90;;;;;;5116038;27;20421;-85
2024/01/07 09:47:40;;;;;;;4.10;1.67;;;-0.20;99.90;;;;;;5108828;28;20057;-85
2024/01/07 09:50:09;;;;;;;3.47;1.93;;;1.00;99.90;;;;;;5104664;28;20438;-85
2024/01/07 09:52:35;;;;;;;3.13;1.43;;;-0.20;99.90;;;;;;5115517;27;20039;-86
2024/01/07 09:55:03;;;;;;;7.43;2.00;;;-0.10;99.90;;;;;;5115793;27;20046;-85
2024/01/07 09:57:30;;;;;;;4.47;1.63;;;-0.10;99.90;;;;;;5115960;27;20035;-85
2024/01/07 09:59:55;;;;;;;2.67;1.77;;;-0.10;99.90;;;;;;5115837;27;20028;-85
2024/01/07 10:02:24;;;;;;;3.70;2.20;;;-0.10;99.90;;;;;;5115858;27;20034;-85
2024/01/07 10:04:50;;;;;;;3.50;1.97;;;-0.10;99.90;;;;;;5115571;27;20071;-85
2024/01/07 10:07:16;;;;;;;2.73;1.83;;;-0.10;99.90;;;;;;5098710;27;20508;-85
2024/01/07 10:09:43;;;;;;;4.47;1.93;;;-0.10;99.90;;;;;;5098813;27;20074;-85
2024/01/07 10:12:09;;;;;;;4.33;2.00;;;0.00;99.90;;;;;;5115708;27;20136;-84
2024/01/07 10:14:35;;;;;;;4.80;2.10;;;-0.10;99.90;;;;;;5098358;27;20035;-84
2024/01/07 10:17:00;;;;;;;4.00;2.27;;;0.00;99.90;;;;;;5098712;27;20076;-85
2024/01/07 10:19:26;;;;;;;5.27;1.97;;;0.30;99.90;;;;;;5113896;27;20085;-84
2024/01/07 10:22:05;;;;;;;3.83;2.10;;;0.00;99.90;;;;;;5102461;27;20035;-85
2024/01/07 10:24:41;;;;;;;5.00;2.40;;;0.10;99.90;;;;;;5095111;27;20114;-84
2024/01/07 10:27:08;;;;;;;5.90;2.47;;;0.10;99.90;;;;;;5080524;28;20036;-85
2024/01/07 10:29:34;;;;;;;4.50;2.03;;;0.10;99.90;;;;;;5092846;27;20078;-85
2024/01/07 10:32:04;;;;;;;3.17;2.03;;;0.10;99.90;;;;;;5087434;28;20093;-85
2024/01/07 10:34:36;;;;;;;3.60;2.10;;;0.20;99.90;;;;;;5093665;28;20565;-85
2024/01/07 10:37:07;;;;;;;3.13;1.93;;;0.20;99.90;;;;;;5094887;28;20031;-85
2024/01/07 10:39:33;;;;;;;3.70;2.00;;;0.30;99.90;;;;;;5094720;28;20043;-85
2024/01/07 10:42:00;;;;;;;3.80;2.00;;;0.30;99.90;;;;;;5085912;28;20108;-85
2024/01/07 10:44:27;;;;;;;3.57;2.00;;;0.30;99.90;;;;;;5094277;28;20043;-85
2024/01/07 10:46:56;;;;;;;3.70;1.83;;;0.30;99.90;;;;;;5094506;28;20144;-85
2024/01/07 10:49:24;;;;;;;3.20;2.20;;;0.40;99.90;;;;;;5094780;27;20058;-85
2024/01/07 10:52:11;;;;;;;3.97;2.30;;;0.40;99.90;;;;;;5087120;27;20532;-86
2024/01/07 10:54:39;;;;;;;3.30;2.10;;;1.40;99.90;;;;;;5079230;28;20406;-85
2024/01/07 10:57:14;;;;;;;3.17;1.70;;;0.60;99.90;;;;;;5105247;27;20035;-88
2024/01/07 10:59:41;;;;;;;4.67;2.47;;;0.80;99.90;;;;;;5114920;27;20091;-87
2024/01/07 11:02:08;;;;;;;4.37;2.00;;;0.90;99.90;;;;;;5087458;28;20046;-86
2024/01/07 11:04:53;;;;;;;3.87;2.10;;;1.00;99.90;;;;;;5110449;27;20104;-85
2024/01/07 11:07:41;;;;;;;2.90;1.90;;;1.10;99.90;;;;;;5096744;27;20081;-86
2024/01/07 11:10:10;;;;;;;4.33;1.87;;;1.20;99.90;;;;;;5077710;27;20039;-85
2024/01/07 11:12:36;;;;;;;6.70;2.43;;;1.10;99.90;;;;;;5093329;28;20039;-86
2024/01/07 11:15:02;;;;;;;3.97;2.10;;;1.00;99.90;;;;;;5092882;28;20501;-86
2024/01/07 11:17:41;;;;;;;2.50;1.70;;;1.00;99.90;;;;;;5086864;27;20088;-86
2024/01/07 11:20:14;;;;;;;4.23;2.10;;;1.10;99.90;;;;;;5093602;28;20110;-87
2024/01/07 11:22:39;;;;;;;4.10;2.10;;;1.00;99.90;;;;;;5079684;28;20050;-87
2024/01/07 11:25:30;;;;;;;4.07;1.70;;;0.90;99.90;;;;;;5100085;28;20044;-85
2024/01/07 11:28:01;;;;;;;3.37;1.77;;;0.80;99.90;;;;;;5096135;27;20071;-85
2024/01/07 11:30:27;;;;;;;3.70;1.80;;;0.80;99.90;;;;;;5112691;27;20463;-85
2024/01/07 11:33:00;;;;;;;3.73;2.00;;;0.90;99.90;;;;;;5092511;27;20127;-85
2024/01/07 11:35:54;;;;;;;3.60;2.00;;;1.00;99.90;;;;;;5086009;28;20105;-86
2024/01/07 11:38:20;;;;;;;3.43;2.50;;;1.10;99.90;;;;;;5104177;28;20081;-86
2024/01/07 11:40:48;;;;;;;5.00;2.20;;;1.00;99.90;;;;;;5107424;27;20027;-86
2024/01/07 11:43:14;;;;;;;4.47;2.40;;;1.00;99.90;;;;;;5105268;27;20039;-85
2024/01/07 11:45:40;;;;;;;6.10;2.40;;;1.00;99.90;;;;;;5080463;28;20031;-85
2024/01/07 11:48:05;;;;;;;5.43;2.60;;;0.90;99.90;;;;;;5088341;27;20042;-86
2024/01/07 11:50:31;;;;;;;4.87;2.47;;;0.90;99.90;;;;;;5081873;28;20499;-86
2024/01/07 11:52:57;;;;;;;3.43;2.27;;;0.90;99.90;;;;;;5099107;27;20443;-85
2024/01/07 11:55:24;;;;;;;4.50;2.67;;;1.00;99.90;;;;;;5102185;27;20121;-85
2024/01/07 11:57:51;;;;;;;4.17;2.63;;;0.90;99.90;;;;;;5097862;27;20035;-85
2024/01/07 12:00:18;;;;;;;4.50;2.70;;;0.90;99.90;;;;;;5080091;28;20035;-85
2024/01/07 12:02:45;;;;;;;5.83;3.13;;;1.20;99.90;;;;;;5083547;27;20035;-85
2024/01/07 12:05:12;;;;;;;7.00;3.10;;;1.10;99.90;;;;;;5099724;28;20047;-86
2024/01/07 12:07:38;;;;;;;5.43;3.00;;;1.20;99.90;;;;;;5082750;28;20031;-86
2024/01/07 12:10:08;;;;;;;5.47;2.73;;;1.30;99.90;;;;;;5097199;28;20112;-86
2024/01/07 12:12:34;;;;;;;4.80;2.73;;;1.30;99.90;;;;;;5086167;28;20127;-87
2024/01/07 12:14:59;;;;;;;3.57;2.50;;;1.50;99.90;;;;;;5082300;28;20525;-85
2024/01/07 12:17:26;;;;;;;5.50;2.93;;;1.50;99.90;;;;;;5098308;28;20027;-87
2024/01/07 12:19:51;;;;;;;4.60;3.10;;;1.50;99.90;;;;;;5084938;28;20047;-86
2024/01/07 12:22:17;;;;;;;4.73;2.97;;;1.50;99.90;;;;;;5097082;28;20035;-86
2024/01/07 12:24:44;;;;;;;6.07;2.93;;;1.30;99.90;;;;;;5085086;28;20065;-87
2024/01/07 12:27:09;;;;;;;7.77;3.33;;;1.30;99.90;;;;;;5081560;28;20039;-87
2024/01/07 12:29:35;;;;;;;6.03;3.37;;;1.40;99.90;;;;;;5101658;28;20046;-86
2024/01/07 12:32:02;;;;;;;4.57;3.23;;;1.40;99.90;;;;;;5104748;28;20045;-86
2024/01/07 12:34:28;;;;;;;7.70;3.10;;;1.40;99.90;;;;;;5107375;28;20035;-87
2024/01/07 12:36:55;;;;;;;7.00;2.97;;;1.40;99.90;;;;;;5096735;28;20100;-87
2024/01/07 12:39:20;;;;;;;4.77;3.20;;;1.30;99.90;;;;;;5113359;28;20047;-87
2024/01/07 12:41:47;;;;;;;5.00;3.10;;;1.20;99.90;;;;;;5082451;28;20031;-87
2024/01/07 12:44:12;;;;;;;5.27;3.33;;;1.10;99.90;;;;;;5113056;28;20035;-87